Time;durP1;ratioP1;P1;durP2;ratioP2;P2;SDS_P1;SDS_P2;PMS_P1;PMS_P2;Temp;Humidity;BMP_temperature;BMP_pressure;BME280_temperature;BME280_humidity;BME280_pressure;Samples;Min_cycle;Max_cycle;Signal;HPM_P1;HPM_P2
2023/05/10 00:01:25;;;;;;;7.60;4.60;;;;;;;8.19;45.27;100690.31;131651;1248;107253;-77
2023/05/10 00:04:31;;;;;;;8.00;4.70;;;;;;;8.17;45.16;100687.07;131657;1250;107476;-77
2023/05/10 00:07:36;;;;;;;6.80;4.50;;;;;;;8.14;45.65;100681.87;131726;1250;107399;-77
2023/05/10 00:10:42;;;;;;;8.90;5.70;;;;;;;8.12;45.34;100680.97;131665;1250;107485;-77
2023/05/10 00:13:47;;;;;;;7.60;5.40;;;;;;;8.09;45.64;100680.32;131585;1248;107335;-77
2023/05/10 00:16:53;;;;;;;8.10;5.30;;;;;;;8.03;45.54;100679.92;131702;1253;107458;-78
2023/05/10 00:19:58;;;;;;;6.60;4.60;;;;;;;7.99;45.46;100679.95;131582;1250;108124;-78
2023/05/10 00:23:04;;;;;;;6.80;4.70;;;;;;;7.96;45.86;100675.36;131715;1251;106414;-78
2023/05/10 00:26:09;;;;;;;7.70;4.80;;;;;;;7.95;45.95;100675.65;131791;1251;107443;-78
2023/05/10 00:29:16;;;;;;;5.40;4.00;;;;;;;7.91;45.70;100673.98;131795;1254;107337;-78
2023/05/10 00:32:22;;;;;;;7.00;4.70;;;;;;;7.89;45.87;100673.52;131835;1248;107506;-78
2023/05/10 00:35:28;;;;;;;6.80;4.50;;;;;;;7.85;45.97;100671.44;131876;1250;107554;-78
2023/05/10 00:38:33;;;;;;;6.40;4.40;;;;;;;7.82;45.97;100674.01;131765;1261;107511;-78
2023/05/10 00:41:39;;;;;;;8.40;5.40;;;;;;;7.79;46.08;100674.47;131768;1251;106539;-78
2023/05/10 00:44:46;;;;;;;6.90;4.70;;;;;;;7.75;46.15;100676.55;131848;1248;107350;-78
2023/05/10 00:47:54;;;;;;;7.40;4.70;;;;;;;7.72;46.17;100673.92;131668;1249;107502;-77
2023/05/10 00:51:01;;;;;;;9.70;4.90;;;;;;;7.68;46.31;100673.35;131644;1250;107478;-77
2023/05/10 00:54:07;;;;;;;8.40;4.40;;;;;;;7.65;46.37;100673.13;131666;1248;107241;-78
2023/05/10 00:57:13;;;;;;;6.90;4.50;;;;;;;7.61;46.41;100669.70;131498;1253;107364;-78
2023/05/10 01:00:19;;;;;;;7.20;4.40;;;;;;;7.58;46.53;100666.75;131572;1248;107336;-78
2023/05/10 01:03:24;;;;;;;6.80;4.60;;;;;;;7.55;46.69;100663.68;131705;1250;107397;-78
2023/05/10 01:06:30;;;;;;;7.10;4.50;;;;;;;7.53;46.73;100666.32;131323;1253;107246;-77
2023/05/10 01:09:36;;;;;;;7.00;4.60;;;;;;;7.50;46.87;100664.56;131484;1248;107335;-78
2023/05/10 01:12:44;;;;;;;10.10;5.00;;;;;;;7.46;46.96;100664.37;131640;1253;107517;-78
2023/05/10 01:15:50;;;;;;;9.10;4.90;;;;;;;7.39;47.01;100663.46;131687;1254;107555;-78
2023/05/10 01:18:55;;;;;;;7.20;4.80;;;;;;;7.31;47.25;100664.12;131773;1253;107622;-78
2023/05/10 01:22:12;;;;;;;7.10;4.90;;;;;;;7.23;47.06;100663.15;131736;1252;107934;-78
2023/05/10 01:25:41;;;;;;;7.90;4.90;;;;;;;7.13;47.67;100658.34;131487;1253;107433;-78
2023/05/10 01:29:19;;;;;;;6.20;4.30;;;;;;;7.06;47.80;100665.70;131503;1253;108134;-77
2023/05/10 01:32:32;;;;;;;6.60;4.50;;;;;;;7.00;47.76;100664.95;131669;1248;107416;-78
2023/05/10 01:35:43;;;;;;;6.40;4.70;;;;;;;6.92;47.92;100665.58;131852;1248;107516;-78
2023/05/10 01:38:54;;;;;;;9.70;5.00;;;;;;;6.86;47.93;100665.13;131747;1251;107471;-77
2023/05/10 01:42:08;;;;;;;8.00;4.30;;;;;;;6.80;48.33;100667.60;131551;1263;108120;-76
2023/05/10 01:45:21;;;;;;;7.00;4.70;;;;;;;6.70;48.34;100666.73;131526;1248;107273;-76
2023/05/10 01:48:29;;;;;;;7.40;4.50;;;;;;;6.64;48.29;100666.70;131581;1253;107331;-76
2023/05/10 01:51:40;;;;;;;6.70;5.10;;;;;;;6.55;48.66;100661.52;131581;1252;107497;-77
2023/05/10 01:54:56;;;;;;;9.30;5.00;;;;;;;6.50;48.69;100656.96;131509;1248;107495;-77
2023/05/10 01:58:07;;;;;;;7.00;4.40;;;;;;;6.47;48.74;100662.14;131573;1248;107493;-77
2023/05/10 02:01:14;;;;;;;6.60;4.90;;;;;;;6.42;48.82;100660.23;131558;1248;107509;-77
2023/05/10 02:04:22;;;;;;;9.30;5.90;;;;;;;6.38;49.06;100660.22;131461;1253;107343;-77
2023/05/10 02:07:29;;;;;;;9.50;5.60;;;;;;;6.33;48.91;100660.77;131740;1251;107512;-78
2023/05/10 02:10:37;;;;;;;7.50;5.00;;;;;;;6.29;49.15;100661.71;131594;1254;107224;-78
2023/05/10 02:13:47;;;;;;;7.30;5.00;;;;;;;6.25;49.10;100660.23;131676;1252;106669;-78
2023/05/10 02:16:55;;;;;;;7.20;4.70;;;;;;;6.22;49.36;100660.27;131770;1254;107221;-79
2023/05/10 02:20:02;;;;;;;9.90;6.60;;;;;;;6.18;49.41;100657.11;131874;1254;106533;-78
2023/05/10 02:23:09;;;;;;;10.10;5.90;;;;;;;6.15;49.55;100653.46;131774;1248;107232;-78
2023/05/10 02:26:17;;;;;;;7.30;5.00;;;;;;;6.12;49.61;100655.62;131567;1251;107492;-78
2023/05/10 02:29:25;;;;;;;7.70;4.80;;;;;;;6.09;49.64;100648.89;131661;1251;106690;-78
2023/05/10 02:32:32;;;;;;;8.40;4.50;;;;;;;6.07;50.06;100649.97;131625;1250;106685;-78
2023/05/10 02:35:38;;;;;;;7.90;4.70;;;;;;;6.03;50.11;100643.23;131684;1247;107525;-77
2023/05/10 02:38:46;;;;;;;6.70;4.90;;;;;;;5.99;49.97;100642.30;131331;1248;107339;-75
2023/05/10 02:41:55;;;;;;;10.70;5.60;;;;;;;5.94;49.93;100644.73;131714;1250;107437;-76
2023/05/10 02:45:04;;;;;;;9.40;5.40;;;;;;;5.91;50.14;100641.05;131583;1250;107404;-74
2023/05/10 02:48:10;;;;;;;7.90;5.20;;;;;;;5.90;50.41;100639.52;131621;1251;107132;-76
2023/05/10 02:51:19;;;;;;;7.60;5.20;;;;;;;5.88;50.17;100634.54;131543;1250;107475;-76
2023/05/10 02:54:29;;;;;;;9.90;5.30;;;;;;;5.86;50.52;100634.16;131634;1253;107940;-75
2023/05/10 02:57:40;;;;;;;10.30;5.60;;;;;;;5.87;50.78;100634.80;131684;1251;107528;-76
2023/05/10 03:00:46;;;;;;;9.90;5.90;;;;;;;5.89;50.59;100630.45;131684;1254;107471;-75
2023/05/10 03:03:51;;;;;;;9.20;5.50;;;;;;;5.90;50.71;100631.20;131467;1250;107189;-77
2023/05/10 03:06:57;;;;;;;8.10;5.40;;;;;;;5.95;50.76;100631.97;131575;1251;108455;-75
2023/05/10 03:10:04;;;;;;;9.80;5.40;;;;;;;5.96;50.81;100630.27;131544;1251;107509;-77
2023/05/10 03:13:18;;;;;;;8.60;5.50;;;;;;;5.98;50.84;100630.85;131592;1252;107418;-75
2023/05/10 03:16:30;;;;;;;7.60;4.90;;;;;;;6.02;50.72;100633.39;131580;1253;107492;-77
2023/05/10 03:19:44;;;;;;;7.80;4.70;;;;;;;6.03;50.99;100632.80;131509;1253;107562;-77
2023/05/10 03:22:54;;;;;;;7.90;5.10;;;;;;;6.04;51.21;100637.08;131516;1254;105930;-77
2023/05/10 03:26:01;;;;;;;8.30;4.70;;;;;;;6.08;51.09;100631.34;131519;1248;107268;-77
2023/05/10 03:29:08;;;;;;;7.40;5.00;;;;;;;6.12;51.14;100624.48;131508;1251;107411;-77
2023/05/10 03:32:14;;;;;;;14.20;5.70;;;;;;;6.16;51.15;100625.77;131334;1254;107340;-78
2023/05/10 03:35:20;;;;;;;7.50;4.70;;;;;;;6.20;51.08;100622.51;131362;1257;106204;-77
2023/05/10 03:38:26;;;;;;;9.00;5.00;;;;;;;6.24;51.05;100627.49;131564;1259;108136;-77
2023/05/10 03:41:32;;;;;;;8.90;4.90;;;;;;;6.30;51.22;100619.95;131548;1248;107510;-76
2023/05/10 03:44:38;;;;;;;7.80;5.00;;;;;;;6.44;51.21;100621.08;131333;1248;107492;-78
2023/05/10 03:47:43;;;;;;;6.90;5.10;;;;;;;6.64;51.17;100630.09;131421;1248;107533;-77
2023/05/10 03:50:49;;;;;;;6.30;4.70;;;;;;;6.86;51.23;100626.25;131510;1251;107505;-77
2023/05/10 03:53:55;;;;;;;7.40;4.80;;;;;;;7.10;51.22;100624.02;131367;1251;107595;-77
2023/05/10 03:57:02;;;;;;;7.10;4.40;;;;;;;7.35;51.02;100626.16;131485;1253;107361;-77
2023/05/10 04:00:11;;;;;;;7.00;5.10;;;;;;;7.58;50.97;100620.90;131475;1248;107350;-77
2023/05/10 04:03:20;;;;;;;8.20;5.00;;;;;;;7.84;50.98;100625.89;131587;1254;107507;-77
2023/05/10 04:06:26;;;;;;;10.40;5.30;;;;;;;8.07;50.87;100630.15;131486;1249;107381;-77
2023/05/10 04:09:32;;;;;;;9.00;5.70;;;;;;;8.31;50.70;100624.46;131486;1251;105357;-77
2023/05/10 04:12:38;;;;;;;15.40;9.00;;;;;;;8.56;50.70;100625.73;131505;1250;105426;-76
2023/05/10 04:15:43;;;;;;;26.30;15.90;;;;;;;8.77;50.55;100626.43;131435;1253;107503;-76
2023/05/10 04:18:49;;;;;;;17.30;10.60;;;;;;;9.02;50.68;100626.80;131495;1259;107580;-76
2023/05/10 04:21:54;;;;;;;12.60;8.00;;;;;;;9.24;50.35;100629.63;131496;1254;107494;-76
2023/05/10 04:25:00;;;;;;;14.50;9.70;;;;;;;9.44;50.23;100625.92;131644;1251;107319;-76
2023/05/10 04:28:06;;;;;;;12.30;7.80;;;;;;;9.64;49.97;100621.81;131597;1250;107528;-76
2023/05/10 04:31:12;;;;;;;12.40;6.90;;;;;;;9.79;50.34;100620.59;131576;1253;107490;-76
2023/05/10 04:34:17;;;;;;;15.10;7.40;;;;;;;9.92;49.97;100617.88;131593;1253;107436;-76
2023/05/10 04:37:23;;;;;;;13.40;7.30;;;;;;;10.09;49.63;100611.70;131495;1254;107563;-76
2023/05/10 04:40:29;;;;;;;12.10;6.20;;;;;;;10.24;49.79;100607.11;131581;1253;107559;-76
2023/05/10 04:43:35;;;;;;;10.90;5.60;;;;;;;10.42;49.54;100605.86;131495;1254;107343;-76
2023/05/10 04:46:40;;;;;;;7.70;5.10;;;;;;;10.53;49.43;100601.60;131526;1260;105578;-77
2023/05/10 04:49:46;;;;;;;10.00;5.30;;;;;;;10.66;49.58;100603.77;132842;1250;107527;-76
2023/05/10 04:52:51;;;;;;;7.60;4.70;;;;;;;10.79;49.19;100608.90;131521;1257;108767;-76
2023/05/10 04:55:57;;;;;;;6.60;4.50;;;;;;;10.94;49.35;100607.52;131489;1261;107861;-76
2023/05/10 04:59:03;;;;;;;6.30;4.50;;;;;;;11.08;49.11;100606.50;131501;1251;107442;-76
2023/05/10 05:02:08;;;;;;;6.20;4.30;;;;;;;11.22;48.87;100605.84;131545;1253;108415;-76
2023/05/10 05:05:14;;;;;;;8.50;4.20;;;;;;;11.35;48.94;100605.55;131466;1251;107319;-77
2023/05/10 05:08:20;;;;;;;6.20;4.50;;;;;;;11.46;48.66;100602.73;131749;1248;107497;-77
2023/05/10 05:11:26;;;;;;;5.70;4.30;;;;;;;11.55;48.62;100602.33;131616;1261;107480;-76
2023/05/10 05:14:32;;;;;;;8.80;3.90;;;;;;;11.68;48.53;100598.33;131550;1260;106548;-76
2023/05/10 05:17:37;;;;;;;9.20;4.30;;;;;;;11.81;48.63;100598.89;131551;1260;107221;-76
2023/05/10 05:20:43;;;;;;;6.20;4.30;;;;;;;11.91;47.98;100602.49;131621;1248;107224;-77
2023/05/10 05:23:48;;;;;;;7.50;4.00;;;;;;;11.99;48.44;100598.71;131673;1253;107236;-76
2023/05/10 05:26:54;;;;;;;5.60;3.80;;;;;;;12.09;48.17;100596.68;131576;1261;107380;-76
2023/05/10 05:29:59;;;;;;;4.60;3.70;;;;;;;12.17;48.01;100591.51;131559;1254;107015;-76
2023/05/10 05:33:05;;;;;;;6.00;3.70;;;;;;;12.28;48.02;100590.11;131599;1254;105604;-76
2023/05/10 05:36:11;;;;;;;5.20;3.50;;;;;;;12.39;47.80;100593.27;131546;1252;107392;-76
2023/05/10 05:39:16;;;;;;;5.30;3.90;;;;;;;12.47;47.64;100588.68;131648;1251;107371;-76
2023/05/10 05:42:22;;;;;;;6.20;3.90;;;;;;;12.54;47.42;100589.59;131682;1253;107364;-76
2023/05/10 05:45:27;;;;;;;6.30;3.50;;;;;;;12.59;47.40;100593.58;131598;1259;107370;-76
2023/05/10 05:48:33;;;;;;;4.50;3.60;;;;;;;12.65;47.16;100590.56;131498;1252;107427;-76
2023/05/10 05:51:38;;;;;;;6.80;3.30;;;;;;;12.69;47.05;100586.77;131532;1251;107177;-76
2023/05/10 05:54:44;;;;;;;4.70;3.40;;;;;;;12.75;47.12;100583.33;131649;1248;107095;-76
2023/05/10 05:57:50;;;;;;;7.10;3.80;;;;;;;12.80;46.70;100585.98;131535;1260;107519;-76
2023/05/10 06:00:55;;;;;;;6.20;3.50;;;;;;;12.85;46.90;100590.36;131623;1252;107450;-76
2023/05/10 06:04:01;;;;;;;7.80;3.60;;;;;;;12.89;46.31;100590.73;131537;1253;107384;-76
2023/05/10 06:07:06;;;;;;;5.20;3.20;;;;;;;12.90;45.96;100587.06;131621;1260;106446;-76
2023/05/10 06:10:12;;;;;;;4.80;3.60;;;;;;;12.93;46.16;100583.61;131604;1252;106777;-76
2023/05/10 06:13:18;;;;;;;4.80;3.40;;;;;;;12.94;45.56;100580.56;131544;1260;107436;-75
2023/05/10 06:16:23;;;;;;;6.50;3.30;;;;;;;12.92;45.31;100580.23;131563;1259;107560;-76
2023/05/10 06:19:29;;;;;;;7.30;3.10;;;;;;;12.93;45.00;100581.64;131537;1253;107467;-75
2023/05/10 06:22:34;;;;;;;4.80;2.90;;;;;;;12.94;45.09;100583.98;131551;1253;107430;-76
2023/05/10 06:25:40;;;;;;;4.30;2.60;;;;;;;12.96;44.85;100582.71;131580;1250;107342;-76
2023/05/10 06:28:45;;;;;;;5.80;2.80;;;;;;;12.99;44.39;100584.22;131628;1253;107511;-75
2023/05/10 06:31:51;;;;;;;5.20;2.90;;;;;;;13.02;44.62;100584.63;131487;1251;107405;-76
2023/05/10 06:34:56;;;;;;;6.60;3.60;;;;;;;13.08;45.00;100585.63;131629;1257;107482;-76
2023/05/10 06:38:02;;;;;;;5.50;3.10;;;;;;;13.15;44.26;100585.78;131608;1251;107593;-76
2023/05/10 06:41:07;;;;;;;5.00;3.00;;;;;;;13.18;44.07;100586.48;131638;1250;107461;-76
2023/05/10 06:44:13;;;;;;;5.50;3.10;;;;;;;13.24;44.51;100584.81;131618;1246;107545;-77
2023/05/10 06:47:19;;;;;;;6.20;2.80;;;;;;;13.29;43.89;100586.95;131617;1252;107543;-77
2023/05/10 06:50:25;;;;;;;4.50;2.90;;;;;;;13.33;43.53;100582.41;131570;1253;107502;-76
2023/05/10 06:53:30;;;;;;;5.40;3.30;;;;;;;13.38;43.51;100581.56;131636;1251;107489;-76
2023/05/10 06:56:36;;;;;;;4.30;3.00;;;;;;;13.44;43.33;100577.56;131557;1251;107683;-75
2023/05/10 06:59:41;;;;;;;4.30;2.60;;;;;;;13.50;43.18;100584.21;131421;1257;107492;-76
2023/05/10 07:02:46;;;;;;;3.40;2.30;;;;;;;13.55;42.70;100587.08;131497;1253;106634;-76
2023/05/10 07:05:52;;;;;;;4.40;2.80;;;;;;;13.60;42.57;100582.09;131515;1261;107437;-76
2023/05/10 07:08:57;;;;;;;3.70;2.50;;;;;;;13.66;42.44;100586.98;131547;1250;105548;-76
2023/05/10 07:12:03;;;;;;;3.90;2.80;;;;;;;13.72;42.33;100588.52;131533;1248;107538;-75
2023/05/10 07:15:11;;;;;;;5.40;2.70;;;;;;;13.80;42.19;100587.84;131488;1251;107495;-75
2023/05/10 07:18:16;;;;;;;5.70;2.50;;;;;;;13.87;42.28;100584.94;131535;1248;107467;-77
2023/05/10 07:21:23;;;;;;;3.60;2.50;;;;;;;13.93;41.96;100584.94;131555;1259;106672;-77
2023/05/10 07:24:29;;;;;;;5.10;2.70;;;;;;;14.03;42.01;100586.89;131541;1251;107089;-76
2023/05/10 07:27:35;;;;;;;5.40;2.50;;;;;;;14.12;41.50;100585.59;131504;1254;108073;-75
2023/05/10 07:30:40;;;;;;;7.60;2.50;;;;;;;14.19;41.08;100588.94;131604;1257;107246;-76
2023/05/10 07:33:47;;;;;;;3.70;2.50;;;;;;;14.25;41.49;100589.17;131527;1254;107201;-76
2023/05/10 07:36:52;;;;;;;4.30;2.50;;;;;;;14.34;41.37;100590.86;131608;1248;106909;-76
2023/05/10 07:39:58;;;;;;;6.20;2.60;;;;;;;14.42;40.97;100591.77;131651;1259;107459;-76
2023/05/10 07:43:03;;;;;;;4.60;2.50;;;;;;;14.50;40.78;100587.50;131542;1260;108614;-75
2023/05/10 07:46:10;;;;;;;5.60;2.40;;;;;;;14.60;40.84;100587.00;131590;1260;107329;-76
2023/05/10 07:49:16;;;;;;;7.20;2.90;;;;;;;14.66;40.04;100586.11;131582;1248;105915;-75
2023/05/10 07:52:22;;;;;;;5.00;2.40;;;;;;;14.69;40.56;100588.05;131585;1253;107508;-76
2023/05/10 07:55:27;;;;;;;5.40;2.40;;;;;;;14.77;40.62;100588.23;131533;1254;107531;-76
2023/05/10 07:58:33;;;;;;;6.70;2.30;;;;;;;14.87;40.54;100581.59;131494;1253;107641;-76
2023/05/10 08:01:38;;;;;;;2.40;2.10;;;;;;;14.97;40.10;100591.29;131550;1251;107472;-76
2023/05/10 08:04:44;;;;;;;3.20;2.30;;;;;;;15.01;39.22;100581.81;131577;1251;107227;-76
2023/05/10 08:07:50;;;;;;;5.60;2.50;;;;;;;15.06;39.25;100584.30;131586;1248;108076;-76
2023/05/10 08:10:55;;;;;;;3.00;2.60;;;;;;;15.10;39.49;100584.36;131636;1261;107394;-76
2023/05/10 08:14:01;;;;;;;4.80;2.80;;;;;;;15.16;39.06;100583.70;131579;1259;106011;-76
2023/05/10 08:17:06;;;;;;;4.40;2.20;;;;;;;15.22;39.24;100585.89;131553;1251;107200;-76
2023/05/10 08:20:16;;;;;;;4.90;2.60;;;;;;;15.28;38.61;100588.77;131544;1251;108445;-78
2023/05/10 08:23:22;;;;;;;4.00;2.20;;;;;;;15.37;38.96;100585.80;131605;1253;105988;-76
2023/05/10 08:26:27;;;;;;;4.20;2.00;;;;;;;15.42;37.98;100577.89;131557;1249;107544;-76
2023/05/10 08:29:33;;;;;;;2.70;2.00;;;;;;;15.43;38.11;100579.05;131579;1251;107648;-76
2023/05/10 08:32:38;;;;;;;4.20;2.10;;;;;;;15.50;38.80;100579.69;131586;1251;107353;-76
2023/05/10 08:35:44;;;;;;;5.10;2.30;;;;;;;15.58;38.46;100568.13;131564;1251;107528;-77
2023/05/10 08:38:51;;;;;;;4.70;2.40;;;;;;;15.67;38.63;100569.42;131680;1253;107279;-76
2023/05/10 08:41:58;;;;;;;5.50;2.30;;;;;;;15.69;37.42;100572.33;131552;1251;107376;-76
2023/05/10 08:45:06;;;;;;;3.90;2.00;;;;;;;15.68;38.03;100571.20;131516;1250;109273;-76
2023/05/10 08:48:12;;;;;;;3.60;2.10;;;;;;;15.71;38.37;100567.48;131567;1251;107543;-76
2023/05/10 08:51:23;;;;;;;3.50;2.30;;;;;;;15.78;37.80;100564.96;131580;1251;107638;-76
2023/05/10 08:54:30;;;;;;;4.80;2.20;;;;;;;15.85;38.09;100570.39;131648;1261;107646;-76
2023/05/10 08:57:36;;;;;;;3.10;2.20;;;;;;;15.93;37.96;100568.75;131525;1248;106847;-76
2023/05/10 09:00:42;;;;;;;3.00;2.10;;;;;;;15.98;37.81;100567.96;131589;1257;107323;-76
2023/05/10 09:03:48;;;;;;;5.50;2.30;;;;;;;16.05;38.37;100568.08;131565;1251;107380;-76
2023/05/10 09:06:54;;;;;;;4.00;2.00;;;;;;;16.11;37.69;100564.30;131591;1251;107064;-75
2023/05/10 09:10:00;;;;;;;2.40;1.90;;;;;;;16.16;37.37;100567.64;131629;1259;107337;-75
2023/05/10 09:13:06;;;;;;;4.10;2.10;;;;;;;16.19;37.17;100561.61;131573;1248;107510;-76
2023/05/10 09:16:12;;;;;;;5.80;2.50;;;;;;;16.22;36.93;100558.09;131539;1251;107434;-75
2023/05/10 09:19:18;;;;;;;4.10;2.20;;;;;;;16.25;36.93;100558.92;131501;1251;107480;-76
2023/05/10 09:22:24;;;;;;;2.60;2.00;;;;;;;16.29;37.02;100557.36;131516;1248;107566;-76
2023/05/10 09:25:30;;;;;;;3.50;2.00;;;;;;;16.34;37.00;100562.34;131596;1251;107504;-76
2023/05/10 09:28:51;;;;;;;3.60;2.40;;;;;;;16.35;36.51;100554.27;131510;1251;107378;-76
2023/05/10 09:31:56;;;;;;;4.70;2.40;;;;;;;16.37;36.51;100554.23;131521;1251;107477;-76
2023/05/10 09:35:08;;;;;;;5.00;2.10;;;;;;;16.41;36.25;100560.02;131532;1259;107521;-76
2023/05/10 09:38:14;;;;;;;5.30;3.50;;;;;;;16.43;35.91;100555.40;131510;1253;107522;-76
2023/05/10 09:41:22;;;;;;;5.30;2.10;;;;;;;16.41;35.96;100553.52;131531;1251;106676;-76
2023/05/10 09:44:28;;;;;;;3.40;2.00;;;;;;;16.44;35.68;100557.60;131517;1260;107650;-76
2023/05/10 09:47:35;;;;;;;3.90;2.00;;;;;;;16.51;36.40;100556.92;131494;1252;107337;-75
2023/05/10 09:50:42;;;;;;;4.40;1.90;;;;;;;16.58;35.89;100558.31;131562;1251;107530;-78
2023/05/10 09:53:47;;;;;;;2.70;2.00;;;;;;;16.62;35.75;100560.93;131569;1251;107432;-78
2023/05/10 09:56:53;;;;;;;3.50;1.90;;;;;;;16.63;35.83;100550.55;131582;1259;105594;-77
2023/05/10 10:00:01;;;;;;;3.60;2.30;;;;;;;16.68;35.62;100548.80;131476;1250;107501;-76
2023/05/10 10:03:07;;;;;;;2.40;1.90;;;;;;;16.74;35.87;100545.23;131537;1251;105927;-76
2023/05/10 10:06:19;;;;;;;2.10;1.90;;;;;;;16.79;35.98;100542.66;131529;1248;107337;-77
2023/05/10 10:09:26;;;;;;;3.90;2.00;;;;;;;16.85;35.83;100542.31;131720;1248;107202;-76
2023/05/10 10:12:32;;;;;;;7.20;2.00;;;;;;;16.90;35.77;100537.60;131547;1254;107208;-76
2023/05/10 10:15:37;;;;;;;3.50;2.00;;;;;;;16.91;35.52;100536.65;131531;1250;107516;-76
2023/05/10 10:18:44;;;;;;;4.90;2.10;;;;;;;16.92;35.11;100536.70;131575;1247;107427;-76
2023/05/10 10:21:50;;;;;;;3.70;2.30;;;;;;;16.90;34.85;100547.30;131648;1251;107496;-76
2023/05/10 10:24:57;;;;;;;4.60;2.40;;;;;;;16.91;35.46;100536.41;131655;1253;107593;-76
2023/05/10 10:28:18;;;;;;;5.30;2.20;;;;;;;16.97;35.39;100532.63;131615;1248;107508;-76
2023/05/10 10:31:33;;;;;;;5.20;2.30;;;;;;;17.03;35.33;100531.48;131553;1247;107414;-76
2023/05/10 10:34:41;;;;;;;3.40;2.40;;;;;;;17.04;35.11;100526.91;131645;1251;107290;-76
2023/05/10 10:37:48;;;;;;;7.20;2.30;;;;;;;17.04;35.01;100526.58;131546;1251;107486;-76
2023/05/10 10:41:08;;;;;;;3.80;2.20;;;;;;;17.06;34.81;100518.05;131590;1262;106136;-76
2023/05/10 10:44:40;;;;;;;7.60;2.20;;;;;;;17.09;34.90;100524.35;131539;1253;106738;-77
2023/05/10 10:47:46;;;;;;;2.70;2.10;;;;;;;17.11;34.34;100517.95;131557;1248;107487;-76
2023/05/10 10:50:58;;;;;;;3.50;1.90;;;;;;;17.14;34.28;100518.31;131565;1251;107544;-76
2023/05/10 10:54:12;;;;;;;3.20;1.90;;;;;;;17.18;34.57;100522.48;131573;1247;107589;-76
2023/05/10 10:57:22;;;;;;;5.70;1.90;;;;;;;17.21;34.49;100513.79;131570;1251;107630;-76
2023/05/10 11:00:30;;;;;;;4.80;1.80;;;;;;;17.22;34.91;100504.55;131573;1251;107364;-76
2023/05/10 11:03:36;;;;;;;2.90;2.00;;;;;;;17.27;34.78;100502.13;131622;1248;107189;-76
2023/05/10 11:06:42;;;;;;;5.30;1.90;;;;;;;17.31;34.17;100501.53;131647;1247;107524;-76
2023/05/10 11:09:48;;;;;;;2.00;1.80;;;;;;;17.33;34.68;100502.01;131649;1250;105618;-76
2023/05/10 11:13:02;;;;;;;4.10;2.00;;;;;;;17.35;34.48;100498.50;131608;1254;107394;-76
2023/05/10 11:16:16;;;;;;;4.20;2.00;;;;;;;17.33;34.00;100500.85;131485;1251;106502;-76
2023/05/10 11:19:22;;;;;;;3.90;2.00;;;;;;;17.28;33.70;100495.73;131498;1248;107188;-76
2023/05/10 11:22:28;;;;;;;4.60;2.20;;;;;;;17.28;34.24;100501.86;131527;1250;107262;-76
2023/05/10 11:25:34;;;;;;;2.40;1.90;;;;;;;17.34;34.43;100500.08;131569;1257;107213;-76
2023/05/10 11:28:43;;;;;;;5.70;2.00;;;;;;;17.40;34.10;100494.00;131480;1251;107355;-76
2023/05/10 11:31:50;;;;;;;3.60;1.90;;;;;;;17.45;34.19;100490.55;131567;1251;107523;-76
2023/05/10 11:34:56;;;;;;;4.60;2.40;;;;;;;17.49;34.22;100494.08;131726;1251;107473;-76
2023/05/10 11:38:01;;;;;;;3.30;2.00;;;;;;;17.51;33.30;100491.06;131591;1251;107489;-76
2023/05/10 11:41:08;;;;;;;3.10;2.10;;;;;;;17.54;33.93;100493.89;131627;1250;107485;-76
2023/05/10 11:44:14;;;;;;;4.50;2.20;;;;;;;17.58;33.71;100493.42;131527;1261;106761;-77
2023/05/10 11:47:19;;;;;;;2.20;1.90;;;;;;;17.61;33.13;100497.69;131664;1251;107499;-76
2023/05/10 11:50:25;;;;;;;5.30;2.00;;;;;;;17.62;33.40;100493.87;131459;1250;107555;-76
2023/05/10 11:53:32;;;;;;;3.30;2.30;;;;;;;17.63;33.45;100491.86;131599;1251;106641;-76
2023/05/10 11:56:39;;;;;;;5.00;2.10;;;;;;;17.63;33.35;100489.73;131722;1251;107530;-76
2023/05/10 11:59:45;;;;;;;3.40;1.90;;;;;;;17.65;33.35;100494.20;131551;1248;107484;-77
2023/05/10 12:02:51;;;;;;;2.40;1.90;;;;;;;17.68;32.99;100486.48;131575;1251;106859;-76
2023/05/10 12:05:57;;;;;;;4.30;1.90;;;;;;;17.67;32.57;100484.95;131488;1251;107467;-76
2023/05/10 12:09:08;;;;;;;3.90;1.90;;;;;;;17.71;33.14;100484.44;131553;1250;107493;-76
2023/05/10 12:12:18;;;;;;;2.80;2.10;;;;;;;17.80;33.33;100475.86;131618;1250;107418;-75
2023/05/10 12:15:25;;;;;;;2.20;1.90;;;;;;;17.86;33.28;100475.89;131586;1251;106536;-76
2023/05/10 12:18:30;;;;;;;5.10;2.10;;;;;;;17.90;33.05;100477.07;131616;1251;107536;-76
2023/05/10 12:21:38;;;;;;;3.90;2.00;;;;;;;17.90;32.89;100473.08;131587;1248;107504;-76
2023/05/10 12:24:46;;;;;;;2.90;2.00;;;;;;;17.90;32.90;100471.85;131550;1251;107338;-76
2023/05/10 12:27:57;;;;;;;4.80;2.10;;;;;;;17.92;33.13;100477.72;131549;1251;107515;-76
2023/05/10 12:31:03;;;;;;;3.60;2.00;;;;;;;17.96;33.05;100476.80;131534;1250;107502;-75
2023/05/10 12:34:10;;;;;;;5.00;2.00;;;;;;;17.99;33.08;100477.44;131542;1251;107321;-76
2023/05/10 12:37:16;;;;;;;5.30;2.00;;;;;;;18.03;32.69;100478.79;131625;1248;107058;-77
2023/05/10 12:40:22;;;;;;;5.40;2.00;;;;;;;18.03;32.87;100472.61;131701;1251;107401;-78
2023/05/10 12:43:28;;;;;;;5.30;2.20;;;;;;;18.02;32.55;100470.57;131524;1251;107402;-78
2023/05/10 12:46:33;;;;;;;5.20;2.10;;;;;;;18.00;32.66;100468.86;131509;1248;107231;-77
2023/05/10 12:49:39;;;;;;;3.00;1.80;;;;;;;18.00;32.42;100456.97;131514;1248;107422;-77
2023/05/10 12:52:44;;;;;;;4.30;2.20;;;;;;;18.02;32.78;100457.41;131515;1248;106818;-77
2023/05/10 12:55:50;;;;;;;4.00;2.10;;;;;;;18.09;32.16;100456.66;131599;1248;107224;-77
2023/05/10 12:58:55;;;;;;;4.60;2.20;;;;;;;18.12;32.69;100455.84;131577;1250;106466;-77
2023/05/10 13:02:01;;;;;;;6.00;1.90;;;;;;;18.17;32.57;100448.90;131397;1250;105874;-76
2023/05/10 13:05:08;;;;;;;4.50;2.00;;;;;;;18.20;32.23;100442.22;131534;1248;108105;-76
2023/05/10 13:08:13;;;;;;;5.00;2.00;;;;;;;18.22;32.37;100445.48;131556;1250;107511;-77
2023/05/10 13:11:21;;;;;;;3.20;1.80;;;;;;;18.25;32.39;100440.14;131630;1251;107540;-76
2023/05/10 13:14:27;;;;;;;2.30;1.90;;;;;;;18.29;32.21;100440.16;131521;1248;108099;-76
2023/05/10 13:17:33;;;;;;;2.80;1.90;;;;;;;18.30;32.28;100440.15;131536;1251;107482;-76
2023/05/10 13:20:39;;;;;;;3.90;2.30;;;;;;;18.30;31.83;100446.48;131554;1251;107352;-76
2023/05/10 13:23:44;;;;;;;2.30;1.90;;;;;;;18.25;32.32;100437.09;131519;1248;107545;-77
2023/05/10 13:26:50;;;;;;;3.10;2.20;;;;;;;18.25;32.35;100438.27;131669;1248;107252;-76
2023/05/10 13:29:55;;;;;;;3.20;2.00;;;;;;;18.28;32.02;100431.80;131532;1250;107318;-76
2023/05/10 13:33:01;;;;;;;6.20;2.20;;;;;;;18.29;31.99;100430.27;131562;1247;107172;-76
2023/05/10 13:36:07;;;;;;;3.40;2.00;;;;;;;18.29;32.13;100429.39;131443;1263;107534;-76
2023/05/10 13:39:13;;;;;;;4.10;2.10;;;;;;;18.30;32.19;100422.08;131542;1260;107494;-76
2023/05/10 13:42:20;;;;;;;3.70;2.10;;;;;;;18.29;31.84;100420.87;131634;1248;107502;-76
2023/05/10 13:45:25;;;;;;;2.90;1.90;;;;;;;18.28;31.45;100420.66;131496;1251;107369;-76
2023/05/10 13:48:31;;;;;;;4.70;2.20;;;;;;;18.26;31.98;100412.95;131551;1250;107559;-76
2023/05/10 13:51:37;;;;;;;5.60;2.00;;;;;;;18.26;31.80;100412.24;131544;1251;107522;-76
2023/05/10 13:54:43;;;;;;;3.60;1.80;;;;;;;18.25;31.71;100414.49;131604;1250;107623;-76
2023/05/10 13:57:48;;;;;;;4.10;1.90;;;;;;;18.27;31.74;100407.40;131518;1248;107188;-76
2023/05/10 14:00:54;;;;;;;5.30;2.10;;;;;;;18.29;31.29;100407.23;131810;1253;108162;-76
2023/05/10 14:04:00;;;;;;;4.90;2.10;;;;;;;18.27;31.26;100402.03;131590;1247;107203;-75
2023/05/10 14:07:06;;;;;;;2.90;2.20;;;;;;;18.27;31.24;100400.25;131548;1250;107558;-76
2023/05/10 14:10:12;;;;;;;2.90;2.10;;;;;;;18.25;31.12;100397.77;131620;1251;107393;-76
2023/05/10 14:13:17;;;;;;;3.00;2.00;;;;;;;18.20;30.75;100389.26;131562;1250;108609;-76